createdAt,value
2018-07-03T00:03:48.347Z,19.74
2018-07-03T00:08:51.368Z,19.67
2018-07-03T00:13:54.385Z,19.58
2018-07-03T00:18:57.369Z,19.45
2018-07-03T00:24:00.377Z,19.42
2018-07-03T00:29:04.025Z,19.37
2018-07-03T00:34:07.029Z,19.22
2018-07-03T00:39:10.030Z,19.15
2018-07-03T00:44:13.036Z,19.06
2018-07-03T00:49:16.013Z,18.99
2018-07-03T00:54:19.051Z,18.84
2018-07-03T00:59:22.117Z,18.80
2018-07-03T01:04:25.093Z,18.79
2018-07-03T01:09:28.192Z,18.71
2018-07-03T01:14:31.169Z,18.53
2018-07-03T01:19:34.148Z,18.51
2018-07-03T01:24:37.525Z,18.44
2018-07-03T01:29:40.518Z,18.29
2018-07-03T01:34:43.520Z,18.18
2018-07-03T01:39:46.505Z,18.15
2018-07-03T01:44:50.310Z,18.03
2018-07-03T01:49:53.302Z,17.89
2018-07-03T01:54:56.316Z,17.89
2018-07-03T01:59:59.350Z,17.80
2018-07-03T02:05:02.419Z,17.19
2018-07-03T02:10:05.529Z,17.57
2018-07-03T02:15:08.528Z,17.50
2018-07-03T02:20:11.534Z,17.43
2018-07-03T02:25:14.522Z,17.44
2018-07-03T02:30:17.524Z,17.40
2018-07-03T02:35:22.248Z,17.35
2018-07-03T02:40:25.318Z,17.32
2018-07-03T02:45:28.294Z,17.27
2018-07-03T02:50:31.276Z,17.22
2018-07-03T02:55:34.269Z,17.13
2018-07-03T03:00:37.310Z,16.97
2018-07-03T03:05:40.310Z,16.83
2018-07-03T03:10:43.509Z,16.84
2018-07-03T03:15:46.485Z,16.87
2018-07-03T03:20:49.559Z,16.87
2018-07-03T03:25:52.590Z,16.73
2018-07-03T03:30:55.561Z,16.88
2018-07-03T03:35:58.545Z,16.97
2018-07-03T03:41:01.545Z,17.01
2018-07-03T03:46:04.618Z,16.96
2018-07-03T03:51:07.634Z,16.95
2018-07-03T03:56:10.617Z,16.95
2018-07-03T04:01:13.596Z,17.00
2018-07-03T04:06:16.612Z,17.05
2018-07-03T04:11:19.634Z,17.10
2018-07-03T04:16:22.686Z,17.14
2018-07-03T04:21:25.735Z,17.23
2018-07-03T04:26:28.866Z,17.42
2018-07-03T04:31:31.841Z,17.51
2018-07-03T04:36:34.894Z,17.65
2018-07-03T04:41:38.044Z,17.80
2018-07-03T04:46:41.049Z,17.98
2018-07-03T04:51:45.877Z,18.10
2018-07-03T04:56:50.788Z,18.26
2018-07-03T05:01:53.913Z,18.43
2018-07-03T05:06:57.057Z,18.61
2018-07-03T05:12:00.101Z,18.77
2018-07-03T05:17:03.169Z,19.00
2018-07-03T05:22:06.238Z,19.37
2018-07-03T05:27:09.315Z,19.68
2018-07-03T05:32:12.394Z,19.74
2018-07-03T05:37:15.478Z,19.95
2018-07-03T05:42:18.497Z,20.08
2018-07-03T05:47:21.623Z,20.27
2018-07-03T05:52:24.644Z,20.38
2018-07-03T05:57:27.694Z,20.36
2018-07-03T06:02:30.694Z,20.47
2018-07-03T06:07:33.707Z,20.73
2018-07-03T06:12:36.769Z,21.07
2018-07-03T06:17:39.773Z,21.51
2018-07-03T06:22:42.815Z,21.43
2018-07-03T06:27:45.758Z,21.51
2018-07-03T06:32:48.765Z,21.64
2018-07-03T06:37:51.746Z,21.69
2018-07-03T06:42:54.769Z,22.05
2018-07-03T06:47:58.049Z,22.27
2018-07-03T06:53:01.047Z,22.43
2018-07-03T06:58:04.096Z,22.70
2018-07-03T07:03:07.149Z,22.84
2018-07-03T07:08:10.142Z,22.85
2018-07-03T07:13:13.205Z,23.11
2018-07-03T07:18:16.185Z,23.18
2018-07-03T07:23:19.213Z,23.31
2018-07-03T07:28:22.515Z,23.67
2018-07-03T07:33:25.537Z,23.93
2018-07-03T07:38:28.525Z,24.18
2018-07-03T07:43:31.547Z,24.31
2018-07-03T07:48:34.553Z,24.41
2018-07-03T07:53:37.610Z,24.86
2018-07-03T07:58:40.661Z,25.16
2018-07-03T08:03:43.694Z,25.21
2018-07-03T08:08:46.696Z,25.38
2018-07-03T08:13:49.778Z,25.88
2018-07-03T08:18:52.785Z,26.22
2018-07-03T08:23:55.775Z,26.57
2018-07-03T08:28:58.758Z,26.96
2018-07-03T08:34:01.800Z,26.84
2018-07-03T08:39:08.174Z,27.47
2018-07-03T08:44:11.136Z,28.09
2018-07-03T08:49:14.130Z,28.35
2018-07-03T08:54:17.232Z,28.51
2018-07-03T08:59:20.247Z,28.48
2018-07-03T09:04:23.340Z,28.37
2018-07-03T09:09:26.365Z,28.51
2018-07-03T09:14:29.398Z,28.85
2018-07-03T09:19:32.386Z,29.35
2018-07-03T09:24:35.390Z,29.40
2018-07-03T09:29:38.363Z,29.68
2018-07-03T09:34:41.337Z,30.37
2018-07-03T09:39:44.336Z,30.69
2018-07-03T09:44:47.331Z,30.74
2018-07-03T09:49:50.331Z,30.81
2018-07-03T09:54:53.316Z,31.29
2018-07-03T09:59:56.333Z,31.36
2018-07-03T10:04:59.305Z,31.31
2018-07-03T10:10:02.455Z,31.17
2018-07-03T10:15:05.893Z,30.77
2018-07-03T10:20:08.921Z,30.64
2018-07-03T10:25:11.955Z,30.32
2018-07-03T10:30:14.941Z,30.22
2018-07-03T10:35:17.978Z,30.08
2018-07-03T10:40:21.048Z,30.26
2018-07-03T10:45:24.056Z,30.14
2018-07-03T10:50:27.111Z,29.88
2018-07-03T10:55:30.118Z,30.07
2018-07-03T11:00:33.105Z,29.88
2018-07-03T11:05:36.147Z,29.91
2018-07-03T11:10:39.203Z,30.17
2018-07-03T11:15:42.237Z,30.03
2018-07-03T11:20:45.245Z,29.88
2018-07-03T11:25:48.229Z,29.53
2018-07-03T11:30:51.253Z,29.44
2018-07-03T11:35:54.243Z,29.49
2018-07-03T11:40:57.262Z,29.50
2018-07-03T11:46:00.282Z,29.60
2018-07-03T11:51:03.325Z,29.73
2018-07-03T11:56:06.312Z,29.74
2018-07-03T12:01:09.547Z,29.70
2018-07-03T12:06:12.982Z,29.64
2018-07-03T12:11:17.250Z,30.06
2018-07-03T12:16:21.289Z,29.87
2018-07-03T12:21:24.393Z,30.17
2018-07-03T12:26:27.551Z,30.37
2018-07-03T12:31:31.241Z,30.25
2018-07-03T12:36:34.306Z,30.47
2018-07-03T12:41:37.922Z,30.84
2018-07-03T12:46:41.088Z,30.99
2018-07-03T12:51:44.097Z,30.63
2018-07-03T12:56:47.204Z,30.50
2018-07-03T13:01:50.670Z,30.50
2018-07-03T13:06:53.892Z,30.65
2018-07-03T13:11:57.149Z,30.70
2018-07-03T13:17:00.190Z,31.00
2018-07-03T13:22:03.217Z,30.92
2018-07-03T13:27:06.301Z,30.80
2018-07-03T13:32:09.326Z,30.91
2018-07-03T13:37:12.339Z,31.33
2018-07-03T13:42:15.409Z,31.46
2018-07-03T13:47:18.381Z,31.44
2018-07-03T13:52:21.435Z,31.30
2018-07-03T13:57:24.454Z,31.05
2018-07-03T14:02:27.477Z,31.30
2018-07-03T14:07:30.476Z,31.45
2018-07-03T14:12:33.509Z,31.91
2018-07-03T14:17:36.554Z,32.54
2018-07-03T14:22:39.552Z,32.97
2018-07-03T14:27:42.546Z,32.89
2018-07-03T14:32:45.526Z,32.35
2018-07-03T14:37:48.531Z,31.87
2018-07-03T14:42:51.514Z,31.77
2018-07-03T14:47:54.506Z,32.21
2018-07-03T14:52:57.532Z,32.28
2018-07-03T14:58:00.670Z,32.26
2018-07-03T15:03:03.847Z,32.02
2018-07-03T15:08:06.847Z,32.31
2018-07-03T15:13:09.906Z,32.51
2018-07-03T15:18:13.157Z,32.96
2018-07-03T15:23:16.137Z,33.00
2018-07-03T15:28:19.109Z,33.41
2018-07-03T15:33:22.102Z,33.33
2018-07-03T15:38:25.094Z,33.30
2018-07-03T15:43:28.095Z,33.02
2018-07-03T15:48:31.073Z,32.99
2018-07-03T15:53:34.077Z,32.95
2018-07-03T15:58:37.078Z,32.91
2018-07-03T16:04:08.577Z,33.23
2018-07-03T16:09:13.967Z,33.29
2018-07-03T16:14:17.009Z,33.45
2018-07-03T16:19:25.846Z,33.51
2018-07-03T16:24:28.845Z,33.51
2018-07-03T16:29:31.859Z,33.77
2018-07-03T16:34:34.890Z,33.68
2018-07-03T16:39:38.491Z,33.43
2018-07-03T16:44:41.586Z,33.19
2018-07-03T16:49:44.573Z,33.25
2018-07-03T16:54:47.772Z,33.47
2018-07-03T16:59:50.758Z,33.36
2018-07-03T17:04:53.781Z,33.45
2018-07-03T17:09:56.817Z,33.26
2018-07-03T17:14:59.853Z,33.03
2018-07-03T17:20:02.963Z,32.77
2018-07-03T17:25:06.020Z,32.26
2018-07-03T17:30:09.029Z,31.84
2018-07-03T17:35:12.062Z,31.32
2018-07-03T17:40:32.266Z,30.85
2018-07-03T17:46:01.982Z,30.73
2018-07-03T17:51:05.106Z,30.66
2018-07-03T17:56:08.174Z,30.48
2018-07-03T18:01:13.179Z,30.36
2018-07-03T18:06:16.250Z,30.27
2018-07-03T18:11:19.814Z,29.90
2018-07-03T18:16:22.849Z,29.37
2018-07-03T18:21:25.921Z,29.10
2018-07-03T18:26:28.986Z,28.75
2018-07-03T18:31:32.032Z,28.39
2018-07-03T18:36:35.501Z,28.17
2018-07-03T18:41:38.530Z,27.96
2018-07-03T18:46:41.533Z,27.70
2018-07-03T18:51:44.574Z,27.50
2018-07-03T18:56:47.562Z,27.39
2018-07-03T19:01:50.600Z,27.24
2018-07-03T19:06:54.097Z,27.01
2018-07-03T19:11:57.345Z,26.85
2018-07-03T19:17:00.349Z,26.56
2018-07-03T19:22:03.540Z,26.38
2018-07-03T19:27:06.847Z,26.08
2018-07-03T19:32:09.911Z,25.87
2018-07-03T19:37:12.978Z,25.57
2018-07-03T19:42:16.059Z,25.41
2018-07-03T19:47:19.283Z,25.23
2018-07-03T19:52:22.467Z,25.09
2018-07-03T19:57:25.675Z,25.01
2018-07-03T20:02:28.728Z,24.88
2018-07-03T20:07:31.801Z,24.87
2018-07-03T20:12:34.801Z,24.65
2018-07-03T20:17:37.845Z,24.42
2018-07-03T20:22:40.889Z,24.30
2018-07-03T20:27:43.914Z,24.17
2018-07-03T20:32:47.108Z,24.08
2018-07-03T20:37:53.189Z,23.32
2018-07-03T20:42:57.250Z,23.87
2018-07-03T20:48:00.229Z,23.77
2018-07-03T20:53:03.262Z,23.62
2018-07-03T20:58:06.709Z,23.46
2018-07-03T21:03:09.685Z,23.41
2018-07-03T21:08:12.675Z,23.49
2018-07-03T21:13:15.929Z,23.51
2018-07-03T21:18:18.923Z,23.51
2018-07-03T21:23:21.902Z,23.57
2018-07-03T21:28:24.889Z,23.55
2018-07-03T21:33:27.885Z,23.28
2018-07-03T21:38:30.901Z,22.90
2018-07-03T21:43:33.886Z,22.83
2018-07-03T21:48:36.856Z,22.66
2018-07-03T21:53:39.827Z,22.50
2018-07-03T21:58:42.800Z,22.40
2018-07-03T22:03:45.841Z,22.28
2018-07-03T22:08:48.885Z,22.16
2018-07-03T22:13:51.903Z,22.08
2018-07-03T22:18:54.910Z,21.96
2018-07-03T22:23:58.007Z,21.95
2018-07-03T22:29:01.032Z,21.83
2018-07-03T22:34:04.025Z,21.63
2018-07-03T22:39:08.140Z,21.50
2018-07-03T22:44:11.097Z,21.47
2018-07-03T22:49:14.075Z,21.27
2018-07-03T22:54:17.038Z,21.10
2018-07-03T22:59:19.997Z,20.90
2018-07-03T23:04:22.966Z,20.83
2018-07-03T23:09:25.946Z,20.70
2018-07-03T23:14:28.953Z,20.88
2018-07-03T23:19:31.917Z,20.87
2018-07-03T23:24:34.888Z,20.79
2018-07-03T23:29:37.870Z,20.65
2018-07-03T23:34:41.282Z,20.57
2018-07-03T23:39:44.260Z,20.36
2018-07-03T23:44:47.261Z,20.05
2018-07-03T23:50:07.581Z,19.88
2018-07-03T23:55:27.799Z,19.75
